Time;durP1;ratioP1;P1;durP2;ratioP2;P2;SDS_P1;SDS_P2;PMS_P1;PMS_P2;Temp;Humidity;BMP_temperature;BMP_pressure;BME280_temperature;BME280_humidity;BME280_pressure;Samples;Min_cycle;Max_cycle;Signal;HPM_P1;HPM_P2
2023/09/15 00:00:33;;;;;;;16.85;4.78;;;21.10;90.90;;;;;;7392413;19;20368;-79
2023/09/15 00:03:02;;;;;;;9.02;4.50;;;21.10;90.90;;;;;;7392813;19;20334;-79
2023/09/15 00:05:33;;;;;;;13.35;4.50;;;21.10;90.80;;;;;;7416803;19;20021;-80
2023/09/15 00:08:06;;;;;;;10.00;4.50;;;21.10;90.90;;;;;;7392301;19;19999;-78
2023/09/15 00:10:35;;;;;;;13.77;4.68;;;21.00;90.90;;;;;;7393091;19;20295;-78
2023/09/15 00:13:04;;;;;;;8.75;4.38;;;21.00;90.90;;;;;;7392138;19;20031;-79
2023/09/15 00:15:35;;;;;;;12.93;4.43;;;21.00;91.00;;;;;;7392529;19;20079;-78
2023/09/15 00:18:04;;;;;;;12.50;4.70;;;20.90;91.00;;;;;;7392820;19;20011;-79
2023/09/15 00:20:33;;;;;;;7.28;4.22;;;20.90;90.90;;;;;;7411390;19;20011;-79
2023/09/15 00:23:04;;;;;;;8.02;4.30;;;20.90;91.00;;;;;;7392177;19;20299;-79
2023/09/15 00:25:33;;;;;;;9.32;4.28;;;20.90;91.00;;;;;;7392312;19;20079;-79
2023/09/15 00:28:04;;;;;;;7.43;4.65;;;20.90;91.00;;;;;;7391252;19;20003;-79
2023/09/15 00:30:34;;;;;;;7.32;4.30;;;20.90;90.90;;;;;;7391525;19;20021;-80
2023/09/15 00:33:02;;;;;;;7.28;4.72;;;20.90;90.90;;;;;;7389594;19;20021;-79
2023/09/15 00:35:31;;;;;;;8.43;4.75;;;20.80;90.90;;;;;;7410162;19;20010;-79
2023/09/15 00:38:00;;;;;;;11.43;4.78;;;20.70;91.10;;;;;;7389995;19;20337;-79
2023/09/15 00:40:31;;;;;;;8.40;4.47;;;20.70;91.20;;;;;;7387616;19;20034;-79
2023/09/15 00:43:00;;;;;;;;;;;20.70;91.20;;;;;;7389072;19;20403;-79
2023/09/15 00:45:29;;;;;;;11.68;4.35;;;20.70;91.10;;;;;;7388953;19;19989;-79
2023/09/15 00:47:58;;;;;;;9.88;4.70;;;20.70;91.10;;;;;;7389768;19;20047;-78
2023/09/15 00:50:31;;;;;;;9.15;4.40;;;20.60;91.20;;;;;;7410301;19;20010;-78
2023/09/15 00:53:08;;;;;;;12.02;4.88;;;20.60;91.30;;;;;;7389398;19;20007;-78
2023/09/15 00:55:41;;;;;;;9.60;4.40;;;20.60;91.20;;;;;;7389910;19;20031;-79
2023/09/15 00:58:11;;;;;;;9.73;4.45;;;20.60;91.30;;;;;;7388933;19;20002;-78
2023/09/15 01:00:42;;;;;;;7.60;4.40;;;20.60;91.20;;;;;;7388852;19;19999;-79
2023/09/15 01:03:12;;;;;;;11.65;4.63;;;20.60;91.10;;;;;;7388530;19;20244;-79
2023/09/15 01:05:42;;;;;;;10.68;4.40;;;20.60;91.10;;;;;;7387208;19;20023;-80
2023/09/15 01:08:11;;;;;;;9.48;4.32;;;20.60;91.00;;;;;;7410232;19;20010;-79
2023/09/15 01:10:42;;;;;;;8.70;4.47;;;20.60;90.90;;;;;;7391056;19;20039;-79
2023/09/15 01:13:10;;;;;;;;;;;20.60;90.90;;;;;;7391154;19;20003;-80
2023/09/15 01:15:46;;;;;;;4.75;3.75;;;20.70;91.00;;;;;;7390509;19;19907;-80
2023/09/15 01:18:22;;;;;;;8.95;4.53;;;20.70;90.80;;;;;;7393902;19;20007;-79
2023/09/15 01:21:22;;;;;;;19.35;4.40;;;20.60;90.70;;;;;;7388928;19;20019;-79
2023/09/15 01:24:10;;;;;;;8.90;4.45;;;20.60;90.60;;;;;;7387731;19;20024;-78
2023/09/15 01:26:50;;;;;;;6.40;4.22;;;20.60;90.70;;;;;;7403290;19;20010;-80
2023/09/15 01:29:54;;;;;;;11.48;4.78;;;20.60;90.70;;;;;;7425755;19;20370;-78
2023/09/15 01:32:24;;;;;;;15.77;4.85;;;20.50;90.60;;;;;;7405616;19;20299;-79
2023/09/15 01:34:56;;;;;;;15.25;4.82;;;20.50;90.50;;;;;;7400856;19;20009;-79
2023/09/15 01:37:24;;;;;;;;;;;20.60;90.60;;;;;;7390026;19;20385;-79
2023/09/15 01:39:53;;;;;;;11.50;4.43;;;20.60;90.60;;;;;;7386222;19;19936;-79
2023/09/15 01:42:22;;;;;;;14.10;5.22;;;20.50;90.70;;;;;;7387689;19;20024;-79
2023/09/15 01:44:54;;;;;;;13.55;4.32;;;20.50;90.70;;;;;;7384094;19;20347;-79
2023/09/15 01:47:25;;;;;;;9.02;4.45;;;20.50;90.80;;;;;;7409291;19;20006;-79
2023/09/15 01:49:56;;;;;;;14.80;4.67;;;20.50;90.70;;;;;;7385969;19;20003;-79
2023/09/15 01:52:25;;;;;;;14.88;4.63;;;20.50;90.70;;;;;;7386706;19;20007;-79
2023/09/15 01:54:56;;;;;;;10.68;4.68;;;20.50;90.70;;;;;;7385254;19;20015;-80
2023/09/15 01:57:25;;;;;;;10.57;4.82;;;20.50;90.70;;;;;;7387184;19;20021;-79
2023/09/15 01:59:59;;;;;;;13.27;4.68;;;20.50;90.60;;;;;;7386635;19;20101;-79
2023/09/15 02:02:27;;;;;;;13.70;4.32;;;20.50;90.60;;;;;;7405170;19;20455;-79
2023/09/15 02:04:57;;;;;;;12.68;4.80;;;20.50;90.60;;;;;;7385453;19;20010;-79
2023/09/15 02:07:25;;;;;;;14.38;4.43;;;20.50;90.50;;;;;;7385953;19;20006;-79
2023/09/15 02:09:54;;;;;;;8.07;4.20;;;20.50;90.40;;;;;;7387451;19;20010;-78
2023/09/15 02:12:23;;;;;;;7.68;4.50;;;20.40;90.30;;;;;;7388680;19;20010;-79
2023/09/15 02:14:51;;;;;;;23.98;5.05;;;20.50;90.30;;;;;;7392404;19;20031;-80
2023/09/15 02:17:23;;;;;;;10.82;4.85;;;20.40;90.40;;;;;;7407181;19;20010;-79
2023/09/15 02:19:51;;;;;;;;;;;20.40;90.40;;;;;;7388790;19;20051;-78
2023/09/15 02:22:20;;;;;;;11.23;4.45;;;20.40;90.40;;;;;;7387732;19;19907;-79
2023/09/15 02:24:49;;;;;;;6.20;4.45;;;20.40;90.30;;;;;;7387847;19;20015;-78
2023/09/15 02:27:18;;;;;;;6.50;4.45;;;20.40;90.30;;;;;;7389319;19;20003;-79
2023/09/15 02:29:47;;;;;;;8.55;4.78;;;20.40;90.50;;;;;;7387329;19;20035;-79
2023/09/15 02:32:15;;;;;;;7.85;4.57;;;20.30;90.40;;;;;;7410122;19;20414;-79
2023/09/15 02:34:47;;;;;;;7.78;4.40;;;20.30;90.50;;;;;;7389291;19;20035;-80
2023/09/15 02:37:15;;;;;;;;;;;20.30;90.60;;;;;;7391080;19;20007;-79
2023/09/15 02:39:44;;;;;;;16.17;4.32;;;20.30;90.40;;;;;;7389339;19;19915;-79
2023/09/15 02:42:12;;;;;;;9.82;4.15;;;20.20;90.20;;;;;;7392050;19;20027;-80
2023/09/15 02:44:41;;;;;;;10.50;4.65;;;20.20;90.20;;;;;;7385644;19;19998;-79
2023/09/15 02:47:10;;;;;;;7.53;4.22;;;20.20;90.30;;;;;;7409954;19;20006;-79
2023/09/15 02:49:39;;;;;;;10.02;5.18;;;20.20;90.30;;;;;;7386780;19;20002;-79
2023/09/15 02:52:10;;;;;;;6.68;4.13;;;20.20;90.30;;;;;;7388029;19;20035;-79
2023/09/15 02:54:39;;;;;;;12.40;4.45;;;20.30;90.30;;;;;;7388228;19;20014;-79
2023/09/15 02:57:08;;;;;;;12.85;4.20;;;20.30;90.30;;;;;;7389367;19;20038;-79
2023/09/15 02:59:36;;;;;;;12.55;4.88;;;20.30;90.20;;;;;;7416176;19;20011;-80
2023/09/15 03:02:12;;;;;;;10.85;4.55;;;20.20;90.30;;;;;;7390035;19;20006;-80
2023/09/15 03:04:41;;;;;;;7.22;4.55;;;20.20;90.50;;;;;;7392614;19;20381;-79
2023/09/15 03:07:12;;;;;;;7.45;4.80;;;20.10;90.50;;;;;;7392944;19;20014;-78
2023/09/15 03:09:40;;;;;;;;;;;20.10;90.70;;;;;;7396596;19;20002;-80
2023/09/15 03:12:09;;;;;;;7.95;4.57;;;20.10;90.80;;;;;;7391978;19;19946;-79
2023/09/15 03:14:39;;;;;;;10.25;4.78;;;20.10;90.90;;;;;;7402415;19;20013;-79
2023/09/15 03:17:08;;;;;;;10.35;4.80;;;20.10;91.00;;;;;;7412907;19;20010;-80
2023/09/15 03:19:37;;;;;;;13.18;4.72;;;20.00;90.70;;;;;;7393310;19;20011;-78
2023/09/15 03:22:06;;;;;;;11.68;4.82;;;20.10;90.70;;;;;;7393120;19;20011;-79
2023/09/15 03:24:37;;;;;;;12.77;4.50;;;20.10;90.80;;;;;;7393239;19;20013;-79
2023/09/15 03:27:08;;;;;;;17.63;4.25;;;20.10;90.80;;;;;;7404049;19;20022;-79
2023/09/15 03:29:37;;;;;;;9.60;4.53;;;20.10;90.70;;;;;;7430244;19;20007;-80
2023/09/15 03:32:06;;;;;;;8.43;4.68;;;20.10;90.70;;;;;;7432109;19;20015;-78
2023/09/15 03:34:38;;;;;;;6.82;4.18;;;20.10;90.70;;;;;;7409197;19;20014;-78
2023/09/15 03:37:07;;;;;;;9.68;4.65;;;20.10;90.70;;;;;;7392503;19;20274;-78
2023/09/15 03:39:38;;;;;;;11.07;4.72;;;20.10;90.70;;;;;;7393766;19;20028;-79
2023/09/15 03:42:08;;;;;;;10.13;4.90;;;20.10;90.70;;;;;;7391086;19;20369;-78
2023/09/15 03:44:37;;;;;;;15.85;4.32;;;20.10;90.60;;;;;;7413466;19;20002;-78
2023/09/15 03:47:06;;;;;;;8.07;4.07;;;20.10;90.70;;;;;;7394475;19;20007;-78
2023/09/15 03:49:35;;;;;;;8.52;4.32;;;20.10;90.80;;;;;;7392318;19;20021;-79
2023/09/15 03:52:03;;;;;;;12.93;4.32;;;20.10;90.80;;;;;;7393511;19;20248;-80
2023/09/15 03:54:32;;;;;;;7.75;4.15;;;20.10;90.90;;;;;;7393193;19;20010;-79
2023/09/15 03:57:03;;;;;;;9.48;4.38;;;20.10;90.90;;;;;;7393943;19;20091;-80
2023/09/15 03:59:32;;;;;;;;;;;20.00;90.80;;;;;;7414829;19;20346;-79
2023/09/15 04:02:00;;;;;;;11.30;4.40;;;20.10;90.80;;;;;;7389698;19;19915;-79
2023/09/15 04:04:29;;;;;;;9.80;4.53;;;20.10;90.80;;;;;;7392295;19;20014;-79
2023/09/15 04:06:58;;;;;;;8.45;4.20;;;20.10;90.70;;;;;;7395628;19;20007;-79
2023/09/15 04:09:27;;;;;;;15.80;4.55;;;20.10;90.70;;;;;;7393686;19;20041;-79
2023/09/15 04:11:56;;;;;;;7.88;3.97;;;20.10;90.70;;;;;;7391494;19;20225;-79
2023/09/15 04:14:34;;;;;;;8.48;4.35;;;20.00;90.80;;;;;;7412641;19;20007;-79
2023/09/15 04:17:03;;;;;;;8.85;4.47;;;20.00;90.80;;;;;;7394070;19;20050;-79
2023/09/15 04:19:33;;;;;;;10.52;4.53;;;20.00;90.80;;;;;;7394204;19;20017;-79
2023/09/15 04:22:01;;;;;;;9.07;5.30;;;20.00;91.00;;;;;;7394779;19;20031;-80
2023/09/15 04:24:30;;;;;;;8.85;4.55;;;19.90;91.00;;;;;;7393967;19;20010;-79
2023/09/15 04:26:59;;;;;;;9.90;4.07;;;20.00;91.00;;;;;;7391452;19;19999;-78
2023/09/15 04:29:30;;;;;;;10.88;5.63;;;19.90;90.80;;;;;;7416540;19;20015;-79
2023/09/15 04:31:59;;;;;;;;;;;19.90;91.00;;;;;;7394935;19;20025;-79
2023/09/15 04:34:28;;;;;;;10.02;5.00;;;19.90;91.10;;;;;;7392306;19;19918;-79
2023/09/15 04:36:56;;;;;;;8.98;5.60;;;19.90;91.20;;;;;;7391846;19;20113;-79
2023/09/15 04:39:25;;;;;;;13.65;5.40;;;19.90;91.20;;;;;;7393326;19;20002;-78
2023/09/15 04:41:54;;;;;;;11.13;5.53;;;19.90;91.10;;;;;;7392501;19;20031;-79
2023/09/15 04:44:23;;;;;;;9.70;4.75;;;19.80;91.00;;;;;;7412629;19;20015;-79
2023/09/15 04:46:54;;;;;;;9.32;4.70;;;19.90;91.00;;;;;;7391051;19;20030;-79
2023/09/15 04:49:23;;;;;;;;;;;19.80;91.10;;;;;;7392941;19;20014;-78
2023/09/15 04:51:52;;;;;;;11.25;4.70;;;19.90;91.10;;;;;;7390938;19;19911;-79
2023/09/15 04:54:20;;;;;;;9.88;4.80;;;19.90;91.00;;;;;;7390709;19;19999;-79
2023/09/15 04:56:49;;;;;;;9.95;4.32;;;19.90;91.00;;;;;;7389560;19;20011;-78
2023/09/15 04:59:19;;;;;;;12.18;4.85;;;19.90;91.00;;;;;;7410273;19;20017;-79
2023/09/15 05:01:49;;;;;;;8.30;4.88;;;19.80;91.00;;;;;;7389010;19;20003;-79
2023/09/15 05:04:20;;;;;;;7.38;5.18;;;19.90;91.10;;;;;;7389400;19;20016;-79
2023/09/15 05:06:49;;;;;;;12.13;5.05;;;19.90;91.10;;;;;;7389089;19;20007;-80
2023/09/15 05:09:20;;;;;;;15.05;6.22;;;19.90;91.20;;;;;;7389043;19;20377;-79
2023/09/15 05:11:52;;;;;;;10.77;5.30;;;19.90;91.20;;;;;;7386819;19;20014;-78
2023/09/15 05:14:23;;;;;;;9.52;5.32;;;19.90;91.10;;;;;;7412808;19;20046;-79
2023/09/15 05:16:54;;;;;;;12.15;5.47;;;19.80;91.10;;;;;;7390622;19;20384;-80
2023/09/15 05:19:25;;;;;;;9.82;5.78;;;19.90;91.10;;;;;;7387367;19;20070;-79
2023/09/15 05:21:54;;;;;;;10.80;4.57;;;19.90;91.10;;;;;;7387019;19;20011;-80
2023/09/15 05:24:23;;;;;;;14.05;5.68;;;19.90;91.10;;;;;;7390704;19;20002;-80
2023/09/15 05:26:53;;;;;;;11.30;5.63;;;19.90;91.00;;;;;;7399552;19;20006;-77
2023/09/15 05:29:22;;;;;;;12.77;5.65;;;19.80;91.10;;;;;;7427318;19;20006;-78
2023/09/15 05:31:51;;;;;;;12.88;5.32;;;19.80;91.30;;;;;;7406919;19;20010;-79
2023/09/15 05:34:20;;;;;;;10.95;5.15;;;19.80;91.20;;;;;;7405337;19;20014;-79
2023/09/15 05:36:52;;;;;;;14.32;5.72;;;19.80;91.10;;;;;;7399897;19;20006;-79
2023/09/15 05:39:21;;;;;;;16.88;5.38;;;19.90;91.10;;;;;;7387929;19;20386;-79
2023/09/15 05:41:50;;;;;;;12.98;6.00;;;19.90;91.20;;;;;;7386280;19;20006;-79
2023/09/15 05:44:19;;;;;;;10.10;5.90;;;19.80;91.20;;;;;;7409404;19;20028;-80
2023/09/15 05:46:48;;;;;;;12.93;6.50;;;19.90;91.20;;;;;;7388331;19;20006;-79
2023/09/15 05:49:16;;;;;;;11.88;6.10;;;19.90;91.20;;;;;;7388458;19;20002;-80
2023/09/15 05:51:46;;;;;;;13.13;6.38;;;19.90;91.30;;;;;;7386926;19;20010;-78
2023/09/15 05:54:17;;;;;;;18.05;5.32;;;19.90;91.30;;;;;;7389633;19;20013;-79
2023/09/15 05:56:46;;;;;;;;;;;19.90;91.20;;;;;;7390407;19;20010;-80
2023/09/15 05:59:14;;;;;;;14.77;6.28;;;19.90;91.10;;;;;;7410035;19;19911;-79
2023/09/15 06:01:46;;;;;;;15.95;5.38;;;19.90;91.00;;;;;;7388520;19;20003;-80
2023/09/15 06:04:15;;;;;;;14.38;5.82;;;19.90;91.20;;;;;;7387940;19;20006;-80
2023/09/15 06:06:44;;;;;;;10.68;5.32;;;19.90;91.20;;;;;;7388052;19;20028;-79
2023/09/15 06:09:12;;;;;;;59.92;14.57;;;19.90;91.20;;;;;;7389758;19;20006;-79
2023/09/15 06:11:44;;;;;;;147.85;25.50;;;19.90;91.30;;;;;;7386964;19;20010;-78
2023/09/15 06:14:12;;;;;;;;;;;19.90;91.40;;;;;;7407403;19;20014;-78
2023/09/15 06:16:41;;;;;;;49.50;11.45;;;20.00;91.40;;;;;;7390495;19;19910;-79
2023/09/15 06:19:10;;;;;;;25.42;7.13;;;20.00;91.40;;;;;;7388536;19;19998;-80
2023/09/15 06:21:40;;;;;;;13.38;5.55;;;20.00;91.50;;;;;;7386958;19;20361;-79
2023/09/15 06:24:09;;;;;;;21.73;6.70;;;20.00;91.50;;;;;;7388148;19;20007;-80
2023/09/15 06:26:39;;;;;;;24.13;6.22;;;20.00;91.60;;;;;;7402382;19;20007;-79
2023/09/15 06:29:12;;;;;;;18.55;8.02;;;20.00;91.70;;;;;;7407273;19;20007;-80
2023/09/15 06:31:41;;;;;;;19.58;6.97;;;20.00;91.80;;;;;;7386475;19;20027;-79
2023/09/15 06:34:10;;;;;;;23.25;6.60;;;20.10;91.80;;;;;;7385992;19;20003;-79
2023/09/15 06:36:39;;;;;;;21.98;6.88;;;20.10;91.80;;;;;;7387541;19;20035;-78
2023/09/15 06:39:09;;;;;;;16.85;7.32;;;20.20;91.80;;;;;;7386752;19;20006;-79
2023/09/15 06:41:38;;;;;;;17.23;7.22;;;20.20;91.80;;;;;;7399303;19;20003;-79
2023/09/15 06:44:11;;;;;;;19.90;7.60;;;20.30;91.90;;;;;;7409652;19;20115;-79
2023/09/15 06:46:40;;;;;;;29.83;8.18;;;20.30;92.00;;;;;;7389347;19;20421;-80
2023/09/15 06:49:10;;;;;;;17.45;7.90;;;20.40;92.00;;;;;;7388569;19;20009;-80
2023/09/15 06:51:40;;;;;;;15.77;7.38;;;20.40;92.20;;;;;;7388372;19;20011;-79
2023/09/15 06:54:10;;;;;;;15.60;7.22;;;20.50;92.20;;;;;;7391197;19;20005;-80
2023/09/15 06:56:43;;;;;;;20.90;8.68;;;20.60;92.20;;;;;;7388887;19;20010;-80
2023/09/15 06:59:15;;;;;;;17.90;7.45;;;20.60;92.50;;;;;;7411136;19;20015;-79
2023/09/15 07:01:43;;;;;;;;;;;20.70;92.20;;;;;;7388950;19;20006;-79
2023/09/15 07:04:13;;;;;;;22.70;6.80;;;20.80;92.30;;;;;;7387804;19;19907;-79
2023/09/15 07:06:42;;;;;;;16.23;6.63;;;20.80;92.20;;;;;;7387251;19;20010;-81
2023/09/15 07:09:14;;;;;;;14.10;6.63;;;20.90;92.30;;;;;;7387337;19;20007;-80
2023/09/15 07:11:42;;;;;;;17.40;7.00;;;20.90;92.30;;;;;;7387828;19;20010;-80
2023/09/15 07:14:14;;;;;;;14.35;6.78;;;21.00;92.20;;;;;;7407356;19;20026;-79
2023/09/15 07:16:43;;;;;;;16.45;6.90;;;21.00;92.20;;;;;;7386280;19;20038;-79
2023/09/15 07:19:12;;;;;;;13.57;7.10;;;21.10;92.30;;;;;;7386939;19;20374;-80
2023/09/15 07:21:40;;;;;;;16.10;7.90;;;21.10;92.40;;;;;;7385830;19;20011;-80
2023/09/15 07:24:10;;;;;;;13.95;8.07;;;21.20;92.40;;;;;;7387360;19;20034;-80
2023/09/15 07:26:38;;;;;;;17.85;7.32;;;21.30;92.40;;;;;;7398685;19;20322;-80
2023/09/15 07:29:07;;;;;;;20.35;7.32;;;21.40;92.40;;;;;;7421341;19;20011;-79
2023/09/15 07:31:40;;;;;;;17.08;7.75;;;21.40;92.20;;;;;;7402504;19;20007;-78
2023/09/15 07:34:09;;;;;;;25.92;8.15;;;21.50;92.00;;;;;;7402103;19;20003;-79
2023/09/15 07:36:38;;;;;;;25.85;8.05;;;21.50;91.80;;;;;;7401826;19;20002;-79
2023/09/15 07:39:07;;;;;;;17.83;7.53;;;21.60;91.60;;;;;;7393672;19;20006;-80
2023/09/15 07:41:37;;;;;;;14.88;7.18;;;21.70;91.40;;;;;;7406196;19;20014;-79
2023/09/15 07:44:06;;;;;;;11.38;7.07;;;21.70;91.30;;;;;;7389908;19;20040;-79
2023/09/15 07:46:38;;;;;;;13.32;7.15;;;21.70;91.30;;;;;;7394145;19;20022;-79
2023/09/15 07:49:07;;;;;;;20.42;6.80;;;21.80;91.20;;;;;;7394443;19;20013;-80
2023/09/15 07:51:36;;;;;;;20.98;6.60;;;21.80;91.20;;;;;;7395164;19;20007;-80
2023/09/15 07:54:05;;;;;;;26.30;6.57;;;21.80;91.10;;;;;;7394695;19;20015;-80
2023/09/15 07:56:34;;;;;;;16.05;6.35;;;21.90;91.00;;;;;;7411168;19;20263;-79
2023/09/15 07:59:03;;;;;;;18.58;6.90;;;21.90;90.80;;;;;;7392029;19;20010;-80
2023/09/15 08:01:31;;;;;;;14.27;6.30;;;21.90;90.70;;;;;;7392125;19;20291;-79
2023/09/15 08:04:03;;;;;;;21.08;6.40;;;21.90;90.70;;;;;;7391838;19;20024;-78
2023/09/15 08:06:32;;;;;;;14.05;6.63;;;21.90;90.70;;;;;;7392579;19;20018;-79
2023/09/15 08:09:01;;;;;;;18.65;6.35;;;21.90;90.60;;;;;;7393283;19;20019;-79
2023/09/15 08:11:34;;;;;;;21.02;6.32;;;21.90;90.60;;;;;;7414003;19;20370;-79
2023/09/15 08:14:03;;;;;;;24.35;6.35;;;21.90;90.50;;;;;;7393131;19;20015;-80
2023/09/15 08:16:32;;;;;;;12.45;6.32;;;22.00;90.50;;;;;;7391086;19;20011;-77
2023/09/15 08:19:03;;;;;;;14.02;5.63;;;22.00;90.50;;;;;;7391292;19;20017;-78
2023/09/15 08:21:32;;;;;;;17.88;6.00;;;22.00;90.50;;;;;;7390625;19;20007;-78
2023/09/15 08:24:01;;;;;;;10.70;5.63;;;22.00;90.50;;;;;;7389364;19;20014;-79
2023/09/15 08:26:30;;;;;;;11.00;5.47;;;22.00;90.20;;;;;;7410491;19;20002;-80
2023/09/15 08:28:59;;;;;;;21.40;6.60;;;22.10;90.20;;;;;;7389651;19;20382;-79
2023/09/15 08:31:28;;;;;;;16.75;6.18;;;22.10;90.10;;;;;;7390045;19;20007;-78
2023/09/15 08:33:57;;;;;;;14.30;6.18;;;22.10;90.00;;;;;;7390691;19;20049;-80
2023/09/15 08:36:29;;;;;;;9.10;5.40;;;22.20;90.00;;;;;;7387748;19;20030;-79
2023/09/15 08:38:58;;;;;;;15.98;6.57;;;22.20;90.00;;;;;;7386444;19;20231;-81
2023/09/15 08:41:33;;;;;;;10.68;6.15;;;22.20;89.90;;;;;;7408686;19;20006;-79
2023/09/15 08:44:02;;;;;;;12.52;5.72;;;22.20;90.00;;;;;;7386199;19;20657;-80
2023/09/15 08:46:33;;;;;;;20.77;6.28;;;22.30;90.00;;;;;;7389188;19;20023;-79
2023/09/15 08:49:05;;;;;;;12.57;6.13;;;22.20;89.70;;;;;;7390081;19;20003;-80
2023/09/15 08:51:37;;;;;;;20.30;6.22;;;22.30;89.60;;;;;;7389652;19;20006;-79
2023/09/15 08:54:07;;;;;;;16.15;6.07;;;22.30;89.60;;;;;;7388095;19;20038;-78
2023/09/15 08:56:36;;;;;;;15.27;5.93;;;22.30;89.70;;;;;;7413807;19;20370;-78
2023/09/15 08:59:06;;;;;;;16.50;6.20;;;22.30;89.60;;;;;;7391443;19;20252;-78
2023/09/15 09:01:36;;;;;;;8.90;5.65;;;22.30;89.90;;;;;;7389844;19;19999;-79
2023/09/15 09:04:05;;;;;;;11.65;6.45;;;22.40;90.10;;;;;;7390156;19;20013;-79
2023/09/15 09:06:37;;;;;;;22.05;6.55;;;22.40;90.10;;;;;;7388481;19;20024;-79
2023/09/15 09:09:07;;;;;;;11.80;5.88;;;22.40;90.00;;;;;;7388083;19;20006;-80
2023/09/15 09:11:36;;;;;;;21.70;7.13;;;22.50;90.00;;;;;;7411861;19;20023;-80
2023/09/15 09:14:11;;;;;;;12.35;6.00;;;22.50;89.90;;;;;;7388426;19;20002;-79
2023/09/15 09:16:42;;;;;;;15.52;5.70;;;22.50;89.90;;;;;;7387486;19;19999;-79
2023/09/15 09:19:11;;;;;;;16.35;6.18;;;22.50;89.70;;;;;;7390262;19;20019;-78
2023/09/15 09:21:42;;;;;;;12.63;6.03;;;22.50;89.50;;;;;;7389166;19;20010;-79
2023/09/15 09:24:12;;;;;;;13.20;5.80;;;22.50;89.30;;;;;;7389621;19;20388;-80
2023/09/15 09:26:41;;;;;;;19.50;5.97;;;22.50;89.50;;;;;;7391603;19;20007;-80
2023/09/15 09:29:10;;;;;;;14.32;5.07;;;22.60;89.40;;;;;;7409800;19;20015;-79
2023/09/15 09:31:41;;;;;;;16.40;5.80;;;22.60;89.30;;;;;;7391037;19;20007;-81
2023/09/15 09:34:10;;;;;;;18.15;5.65;;;22.60;90.00;;;;;;7396201;19;20034;-80
2023/09/15 09:36:48;;;;;;;9.70;5.15;;;22.60;90.10;;;;;;7407547;19;20014;-80
2023/09/15 09:39:17;;;;;;;11.93;5.72;;;22.70;89.80;;;;;;7407897;19;19998;-79
2023/09/15 09:41:47;;;;;;;12.93;5.50;;;22.70;89.60;;;;;;7405364;19;20007;-79
2023/09/15 09:44:16;;;;;;;12.00;5.68;;;22.70;89.20;;;;;;7424779;19;20007;-79
2023/09/15 09:46:45;;;;;;;13.07;5.30;;;22.70;88.80;;;;;;7393131;19;20031;-79
2023/09/15 09:49:15;;;;;;;10.68;4.90;;;22.80;88.60;;;;;;7394730;19;20007;-80
2023/09/15 09:51:47;;;;;;;11.85;5.68;;;22.70;88.40;;;;;;7388895;19;20007;-78
2023/09/15 09:54:16;;;;;;;13.77;5.45;;;22.80;88.30;;;;;;7387291;19;20008;-80
2023/09/15 09:56:51;;;;;;;12.40;5.72;;;22.80;89.30;;;;;;7388449;19;20035;-80
2023/09/15 09:59:21;;;;;;;11.57;4.97;;;22.80;88.60;;;;;;7408302;19;20353;-80
2023/09/15 10:01:50;;;;;;;9.27;5.10;;;22.90;88.90;;;;;;7388179;19;20006;-80
2023/09/15 10:04:21;;;;;;;18.08;5.30;;;22.90;88.50;;;;;;7388504;19;20014;-80
2023/09/15 10:06:53;;;;;;;17.10;5.53;;;22.90;88.20;;;;;;7385618;19;20414;-80
2023/09/15 10:09:22;;;;;;;10.02;4.68;;;22.90;88.10;;;;;;7386815;19;20013;-79
2023/09/15 10:11:51;;;;;;;13.52;4.57;;;22.90;87.90;;;;;;7386345;19;20006;-79
2023/09/15 10:14:21;;;;;;;19.15;5.20;;;23.00;87.70;;;;;;7407616;19;20010;-80
2023/09/15 10:16:50;;;;;;;15.80;5.10;;;23.00;87.50;;;;;;7386769;19;20044;-80
2023/09/15 10:19:19;;;;;;;12.20;5.25;;;23.00;87.00;;;;;;7389178;19;20228;-80
2023/09/15 10:21:48;;;;;;;10.77;4.63;;;23.00;87.60;;;;;;7388561;19;20003;-80
2023/09/15 10:24:20;;;;;;;6.93;4.38;;;23.00;87.10;;;;;;7387311;19;20299;-79
2023/09/15 10:26:49;;;;;;;11.05;4.60;;;23.00;87.20;;;;;;7385066;19;19998;-80
2023/09/15 10:29:18;;;;;;;7.90;4.60;;;23.10;87.90;;;;;;7408912;19;20014;-79
2023/09/15 10:31:47;;;;;;;8.05;4.55;;;23.10;87.70;;;;;;7388941;19;20034;-79
2023/09/15 10:34:18;;;;;;;13.25;4.63;;;23.20;87.30;;;;;;7388955;19;20003;-80
2023/09/15 10:36:47;;;;;;;10.68;4.35;;;23.20;86.70;;;;;;7388795;19;20010;-79
2023/09/15 10:39:19;;;;;;;16.23;4.45;;;23.20;86.70;;;;;;7387314;19;20010;-79
2023/09/15 10:41:49;;;;;;;10.23;4.00;;;23.30;86.70;;;;;;7387187;19;20030;-79
2023/09/15 10:44:17;;;;;;;12.02;4.75;;;23.30;86.50;;;;;;7407786;19;20260;-80
2023/09/15 10:46:46;;;;;;;6.30;3.85;;;23.30;86.10;;;;;;7387748;19;20014;-79
2023/09/15 10:49:17;;;;;;;13.68;4.53;;;23.30;85.70;;;;;;7387366;19;20010;-79
2023/09/15 10:52:00;;;;;;;11.25;4.28;;;23.40;85.30;;;;;;7387498;19;20003;-79
2023/09/15 10:54:34;;;;;;;6.90;3.72;;;23.50;85.50;;;;;;7388497;19;20011;-79
2023/09/15 10:57:04;;;;;;;8.52;4.05;;;23.50;85.30;;;;;;7388168;19;20039;-80
2023/09/15 10:59:33;;;;;;;11.00;4.28;;;23.50;84.90;;;;;;7408860;19;20011;-80
2023/09/15 11:02:02;;;;;;;9.68;3.85;;;23.50;85.20;;;;;;7389537;19;20013;-78
2023/09/15 11:04:31;;;;;;;6.60;3.45;;;23.60;84.60;;;;;;7387704;19;20007;-78
2023/09/15 11:07:02;;;;;;;9.68;3.75;;;23.60;84.00;;;;;;7388753;19;20010;-79
2023/09/15 11:09:33;;;;;;;8.48;4.18;;;23.70;84.00;;;;;;7386670;19;20002;-82
2023/09/15 11:12:05;;;;;;;10.23;4.25;;;23.70;83.70;;;;;;7386153;19;20027;-79
2023/09/15 11:14:35;;;;;;;18.60;4.03;;;23.70;83.60;;;;;;7410079;19;20007;-79
2023/09/15 11:17:04;;;;;;;7.70;3.23;;;23.80;84.20;;;;;;7389466;19;20014;-79
2023/09/15 11:19:36;;;;;;;8.25;4.07;;;23.80;84.30;;;;;;7392351;19;20002;-79
2023/09/15 11:22:06;;;;;;;6.88;3.28;;;23.90;84.00;;;;;;7395394;19;20017;-79
2023/09/15 11:24:37;;;;;;;11.02;3.65;;;23.90;83.30;;;;;;7394625;19;20266;-79
2023/09/15 11:27:06;;;;;;;6.38;3.60;;;24.00;83.20;;;;;;7395861;19;20031;-80
2023/09/15 11:29:35;;;;;;;6.60;3.53;;;24.10;83.10;;;;;;7414180;19;20011;-80
2023/09/15 11:32:04;;;;;;;12.82;4.03;;;24.10;82.80;;;;;;7395121;19;20015;-80
2023/09/15 11:34:34;;;;;;;10.38;3.70;;;24.10;82.10;;;;;;7398784;19;20007;-79
2023/09/15 11:37:03;;;;;;;8.43;3.50;;;24.20;82.00;;;;;;7409222;19;20093;-79
2023/09/15 11:39:32;;;;;;;9.20;3.60;;;24.30;81.60;;;;;;7411756;19;20011;-79
2023/09/15 11:42:12;;;;;;;6.65;3.50;;;24.30;80.80;;;;;;7409753;19;20014;-79
2023/09/15 11:44:43;;;;;;;15.20;3.53;;;24.40;80.60;;;;;;7404152;19;20031;-80
2023/09/15 11:47:14;;;;;;;7.10;3.35;;;24.50;80.60;;;;;;7415789;19;20055;-80
2023/09/15 11:49:43;;;;;;;4.93;3.20;;;24.50;77.80;;;;;;7394353;19;20397;-79
2023/09/15 11:52:13;;;;;;;7.28;2.80;;;24.50;77.30;;;;;;7392727;19;20003;-80
2023/09/15 11:54:44;;;;;;;6.38;2.85;;;24.60;76.90;;;;;;7392284;19;20011;-79
2023/09/15 11:57:16;;;;;;;6.80;3.10;;;24.60;75.50;;;;;;7392158;19;20020;-79
2023/09/15 11:59:44;;;;;;;10.60;3.15;;;24.70;74.70;;;;;;7392013;19;20011;-79
2023/09/15 12:02:13;;;;;;;7.05;3.20;;;24.70;74.10;;;;;;7415730;19;20006;-79
2023/09/15 12:04:42;;;;;;;4.82;3.17;;;24.80;73.80;;;;;;7390260;19;20027;-79
2023/09/15 12:07:11;;;;;;;4.80;2.97;;;24.80;73.50;;;;;;7390370;19;20044;-79
2023/09/15 12:09:40;;;;;;;6.35;3.58;;;24.90;73.50;;;;;;7392357;19;20015;-80
2023/09/15 12:12:11;;;;;;;6.45;3.40;;;25.00;74.50;;;;;;7390073;19;20011;-80
2023/09/15 12:14:46;;;;;;;5.82;2.97;;;25.00;75.00;;;;;;7389908;19;20002;-80
2023/09/15 12:17:15;;;;;;;4.68;3.17;;;25.20;74.70;;;;;;7414299;19;20037;-80
2023/09/15 12:19:44;;;;;;;3.90;2.80;;;25.30;74.40;;;;;;7390892;19;20010;-80
2023/09/15 12:22:13;;;;;;;6.15;2.97;;;25.30;73.90;;;;;;7390872;19;20006;-79
2023/09/15 12:24:41;;;;;;;5.28;2.95;;;25.40;73.60;;;;;;7390918;19;20002;-79
2023/09/15 12:27:10;;;;;;;4.60;2.88;;;25.50;72.70;;;;;;7389947;19;20007;-80
2023/09/15 12:29:39;;;;;;;4.18;2.88;;;25.60;70.10;;;;;;7393226;19;20006;-78
2023/09/15 12:32:11;;;;;;;7.47;2.88;;;25.70;69.30;;;;;;7412182;19;20223;-79
2023/09/15 12:34:40;;;;;;;3.88;2.72;;;25.80;69.10;;;;;;7390702;19;20015;-79
2023/09/15 12:37:11;;;;;;;4.60;2.80;;;25.80;69.10;;;;;;7394393;19;20014;-80
2023/09/15 12:39:40;;;;;;;3.50;2.53;;;25.90;68.50;;;;;;7391255;19;20022;-79
2023/09/15 12:42:09;;;;;;;13.75;2.58;;;26.00;68.70;;;;;;7391153;19;20015;-79
2023/09/15 12:44:38;;;;;;;5.07;2.63;;;26.10;68.30;;;;;;7407480;19;19999;-79
2023/09/15 12:51:13;;;;;;;13.00;2.70;;;26.10;68.40;;;;;;7414215;19;20011;-84
2023/09/15 13:06:31;;;;;;;6.65;2.53;;;26.30;67.70;;;;;;7385536;19;19999;-78
2023/09/15 13:09:00;;;;;;;3.65;2.60;;;26.30;67.70;;;;;;7381314;19;20024;-78
2023/09/15 13:11:29;;;;;;;5.82;2.78;;;26.50;67.20;;;;;;7407652;19;20071;-75
2023/09/15 13:13:57;;;;;;;8.35;2.80;;;26.70;67.20;;;;;;7381494;19;20003;-76